Time;durP1;ratioP1;P1;durP2;ratioP2;P2;SDS_P1;SDS_P2;PMS_P1;PMS_P2;Temp;Humidity;BMP_temperature;BMP_pressure;BME280_temperature;BME280_humidity;BME280_pressure;Samples;Min_cycle;Max_cycle;Signal;HPM_P1;HPM_P2
2021/08/16 00:00:44;;;;;;;;;;;21.40;99.90;;;;;;5049126;28;19923;-58
2021/08/16 00:03:11;;;;;;;;;;;21.40;99.90;;;;;;5064980;28;19938;-58
2021/08/16 00:05:36;;;;;;;;;;;21.60;99.90;;;;;;5065172;28;19912;-58
2021/08/16 00:08:04;;;;;;;;;;;21.60;99.90;;;;;;5066395;28;20322;-59
2021/08/16 00:10:30;;;;;;;;;;;21.50;99.90;;;;;;5064860;28;20024;-59
2021/08/16 00:12:57;;;;;;;;;;;21.50;99.90;;;;;;5066113;28;20568;-58
2021/08/16 00:15:22;;;;;;;;;;;21.60;99.90;;;;;;5066280;28;20426;-58
2021/08/16 00:17:48;;;;;;;;;;;21.60;99.90;;;;;;5058683;28;19916;-58
2021/08/16 00:20:14;;;;;;;;;;;21.40;99.90;;;;;;5046927;28;19920;-58
2021/08/16 00:22:39;;;;;;;;;;;21.50;99.90;;;;;;5045606;28;20298;-59
2021/08/16 00:25:05;;;;;;;;;;;21.50;99.90;;;;;;5046275;28;20962;-58
2021/08/16 00:27:31;;;;;;;;;;;21.70;99.90;;;;;;5046451;28;20415;-58
2021/08/16 00:29:56;;;;;;;;;;;21.80;99.90;;;;;;5046009;28;19909;-59
2021/08/16 00:32:23;;;;;;;;;;;21.80;99.90;;;;;;5045074;28;19924;-59
2021/08/16 00:34:48;;;;;;;;;;;21.90;99.90;;;;;;5044557;28;19915;-59
2021/08/16 00:37:14;;;;;;;;;;;21.80;99.90;;;;;;5045323;28;20403;-58
2021/08/16 00:39:40;;;;;;;;;;;21.80;99.90;;;;;;5045262;28;19913;-59
2021/08/16 00:42:10;;;;;;;;;;;21.80;99.90;;;;;;5045669;28;19913;-58
2021/08/16 00:44:37;;;;;;;;;;;21.90;99.90;;;;;;5044446;28;20529;-59
2021/08/16 00:47:03;;;;;;;;;;;21.90;99.90;;;;;;5045364;28;20295;-59
2021/08/16 00:49:28;;;;;;;;;;;21.90;99.90;;;;;;5045588;28;19908;-59
2021/08/16 00:51:55;;;;;;;;;;;21.90;99.90;;;;;;5045311;28;19938;-59
2021/08/16 00:54:22;;;;;;;;;;;21.90;99.90;;;;;;5045513;28;19950;-59
2021/08/16 00:56:47;;;;;;;;;;;21.80;99.90;;;;;;5044101;28;19908;-59
2021/08/16 00:59:13;;;;;;;;;;;21.80;99.90;;;;;;5046028;28;19911;-59
2021/08/16 01:01:39;;;;;;;;;;;21.80;99.90;;;;;;5045245;28;20406;-59
2021/08/16 01:04:05;;;;;;;;;;;21.70;99.90;;;;;;5044399;28;19908;-59
2021/08/16 01:06:32;;;;;;;;;;;21.60;99.90;;;;;;5045317;28;19909;-59
2021/08/16 01:08:57;;;;;;;;;;;21.60;99.90;;;;;;5044899;28;19920;-59
2021/08/16 01:11:23;;;;;;;;;;;21.70;99.90;;;;;;5045067;28;19917;-59
2021/08/16 01:13:49;;;;;;;;;;;21.70;99.90;;;;;;5045103;28;19967;-59
2021/08/16 01:16:15;;;;;;;;;;;21.80;99.90;;;;;;5045518;28;19931;-59
2021/08/16 01:18:41;;;;;;;;;;;21.80;99.90;;;;;;5045875;28;20154;-59
2021/08/16 01:21:08;;;;;;;;;;;21.70;99.90;;;;;;5048033;28;19955;-59
2021/08/16 01:23:33;;;;;;;;;;;21.60;99.90;;;;;;5064751;28;19912;-59
2021/08/16 01:25:59;;;;;;;;;;;21.50;99.90;;;;;;5047608;28;19919;-59
2021/08/16 01:28:25;;;;;;;;;;;21.50;99.90;;;;;;5045080;28;19904;-59
2021/08/16 01:30:51;;;;;;;;;;;21.50;99.90;;;;;;5044642;28;20238;-59
2021/08/16 01:33:17;;;;;;;;;;;21.50;99.90;;;;;;5043655;28;19911;-59
2021/08/16 01:35:42;;;;;;;;;;;21.40;99.90;;;;;;5058588;28;19908;-59
2021/08/16 01:38:08;;;;;;;;;;;21.40;99.90;;;;;;5065182;28;20287;-60
2021/08/16 01:40:34;;;;;;;;;;;21.40;99.90;;;;;;5064989;28;19975;-59
2021/08/16 01:43:00;;;;;;;;;;;21.40;99.90;;;;;;5065110;28;20371;-60
2021/08/16 01:45:26;;;;;;;;;;;21.40;99.90;;;;;;5052518;28;19936;-60
2021/08/16 01:47:51;;;;;;;;;;;21.40;99.90;;;;;;5044741;28;19905;-60
2021/08/16 01:50:18;;;;;;;;;;;21.40;99.90;;;;;;5043763;28;19927;-60
2021/08/16 01:52:44;;;;;;;;;;;21.50;99.90;;;;;;5045190;28;19909;-60
2021/08/16 01:55:12;;;;;;;;;;;21.60;99.90;;;;;;5045541;28;19919;-60
2021/08/16 01:57:38;;;;;;;;;;;21.40;99.90;;;;;;5048784;28;19905;-60
2021/08/16 02:00:04;;;;;;;;;;;21.40;99.90;;;;;;5048543;28;19912;-60
2021/08/16 02:02:29;;;;;;;;;;;21.50;99.90;;;;;;5048330;28;19909;-60
2021/08/16 02:04:55;;;;;;;;;;;21.50;99.90;;;;;;5049049;28;19962;-59
2021/08/16 02:07:20;;;;;;;;;;;21.50;99.90;;;;;;5047815;28;19926;-59
2021/08/16 02:09:46;;;;;;;;;;;21.50;99.90;;;;;;5048390;28;19908;-60
2021/08/16 02:12:11;;;;;;;;;;;21.50;99.90;;;;;;5049276;28;20327;-60
2021/08/16 02:14:37;;;;;;;;;;;21.40;99.90;;;;;;5047790;28;20003;-60
2021/08/16 02:17:03;;;;;;;;;;;21.40;99.90;;;;;;5048535;28;19905;-60
2021/08/16 02:19:28;;;;;;;;;;;21.40;99.90;;;;;;5048588;28;20348;-60
2021/08/16 02:21:54;;;;;;;;;;;21.50;99.90;;;;;;5048202;28;19923;-60
2021/08/16 02:24:20;;;;;;;;;;;21.40;99.90;;;;;;5048448;28;19917;-60
2021/08/16 02:26:47;;;;;;;;;;;21.30;99.90;;;;;;5046664;28;19905;-60
2021/08/16 02:29:13;;;;;;;;;;;21.30;99.90;;;;;;5049091;28;19962;-60
2021/08/16 02:31:39;;;;;;;;;;;21.30;99.90;;;;;;5048019;28;20342;-60
2021/08/16 02:34:04;;;;;;;;;;;21.20;99.90;;;;;;5048862;28;19909;-60
2021/08/16 02:36:31;;;;;;;;;;;21.20;99.90;;;;;;5054210;28;19912;-59
2021/08/16 02:38:56;;;;;;;;;;;21.30;99.90;;;;;;5068205;28;19908;-59
2021/08/16 02:41:22;;;;;;;;;;;21.40;99.90;;;;;;5068105;28;19991;-59
2021/08/16 02:43:48;;;;;;;;;;;21.30;99.90;;;;;;5067146;28;19935;-59
2021/08/16 02:46:13;;;;;;;;;;;21.30;99.90;;;;;;5049946;28;19908;-60
2021/08/16 02:48:39;;;;;;;;;;;21.30;99.90;;;;;;5047465;28;19916;-60
2021/08/16 02:51:04;;;;;;;;;;;21.20;99.90;;;;;;5048085;28;19955;-60
2021/08/16 02:53:30;;;;;;;;;;;21.30;99.90;;;;;;5056068;28;20311;-60
2021/08/16 02:55:56;;;;;;;;;;;21.10;99.90;;;;;;5066748;28;19912;-60
2021/08/16 02:58:22;;;;;;;;;;;21.20;99.90;;;;;;5067820;28;19962;-60
2021/08/16 03:00:49;;;;;;;;;;;21.20;99.90;;;;;;5067303;28;20164;-60
2021/08/16 03:03:15;;;;;;;;;;;21.10;99.90;;;;;;5068405;28;20272;-60
2021/08/16 03:05:40;;;;;;;;;;;21.10;99.90;;;;;;5055671;28;19931;-60
2021/08/16 03:08:06;;;;;;;;;;;21.20;99.90;;;;;;5066845;28;19912;-60
2021/08/16 03:10:32;;;;;;;;;;;21.10;99.90;;;;;;5061894;28;19954;-60
2021/08/16 03:12:59;;;;;;;;;;;21.20;99.90;;;;;;5047167;28;19909;-60
2021/08/16 03:15:26;;;;;;;;;;;21.10;99.90;;;;;;5047516;28;19966;-60
2021/08/16 03:17:51;;;;;;;;;;;21.20;99.90;;;;;;5046773;28;19909;-60
2021/08/16 03:20:18;;;;;;;;;;;21.20;99.90;;;;;;5052607;28;20298;-60
2021/08/16 03:22:43;;;;;;;;;;;21.20;99.90;;;;;;5067337;28;20406;-60
2021/08/16 03:25:10;;;;;;;;;;;21.20;99.90;;;;;;5067086;28;19944;-60
2021/08/16 03:27:36;;;;;;;;;;;21.10;99.90;;;;;;5066710;28;19904;-60
2021/08/16 03:30:04;;;;;;;;;;;21.20;99.90;;;;;;5066053;28;19908;-60
2021/08/16 03:32:30;;;;;;;;;;;21.00;99.90;;;;;;5046670;28;19913;-60
2021/08/16 03:34:57;;;;;;;;;;;20.90;99.90;;;;;;5046852;28;19912;-60
2021/08/16 03:37:22;;;;;;;;;;;21.00;99.90;;;;;;5047102;28;20364;-61
2021/08/16 03:39:48;;;;;;;;;;;21.10;99.90;;;;;;5046275;28;19909;-60
2021/08/16 03:42:14;;;;;;;;;;;21.00;99.90;;;;;;5064665;28;20326;-60
2021/08/16 03:44:41;;;;;;;;;;;21.00;99.90;;;;;;5065888;28;19966;-60
2021/08/16 03:47:06;;;;;;;;;;;21.10;99.90;;;;;;5066712;28;19962;-61
2021/08/16 03:49:32;;;;;;;;;;;20.80;99.90;;;;;;5066222;28;19904;-61
2021/08/16 03:51:58;;;;;;;;;;;21.00;99.90;;;;;;5062791;28;20437;-61
2021/08/16 03:54:24;;;;;;;;;;;21.00;99.90;;;;;;5066607;28;19955;-61
2021/08/16 03:56:50;;;;;;;;;;;21.00;99.90;;;;;;5066440;28;19943;-61
2021/08/16 03:59:16;;;;;;;;;;;20.90;99.90;;;;;;5066097;28;20409;-60
2021/08/16 04:01:41;;;;;;;;;;;20.80;99.90;;;;;;5051286;28;19912;-61
2021/08/16 04:04:08;;;;;;;;;;;20.80;99.90;;;;;;5045740;28;20375;-60
2021/08/16 04:06:33;;;;;;;;;;;20.70;99.90;;;;;;5046273;28;19909;-60
2021/08/16 04:08:59;;;;;;;;;;;20.70;99.90;;;;;;5045885;28;20383;-60
2021/08/16 04:11:24;;;;;;;;;;;20.60;99.90;;;;;;5046014;28;19952;-60
2021/08/16 04:13:50;;;;;;;;;;;20.60;99.90;;;;;;5046014;28;20003;-60
2021/08/16 04:16:15;;;;;;;;;;;20.50;99.90;;;;;;5046745;28;19909;-61
2021/08/16 04:18:41;;;;;;;;;;;20.40;99.90;;;;;;5045802;28;19916;-60
2021/08/16 04:21:07;;;;;;;;;;;20.40;99.90;;;;;;5052497;28;19912;-61
2021/08/16 04:23:32;;;;;;;;;;;20.30;99.90;;;;;;5045721;28;19909;-60
2021/08/16 04:25:59;;;;;;;;;;;20.50;99.90;;;;;;5046002;28;20391;-60
2021/08/16 04:28:24;;;;;;;;;;;20.40;99.90;;;;;;5045776;28;19951;-60
2021/08/16 04:30:51;;;;;;;;;;;20.40;99.90;;;;;;5043865;28;19943;-61
2021/08/16 04:33:18;;;;;;;;;;;20.20;99.90;;;;;;5046723;28;19962;-61
2021/08/16 04:35:43;;;;;;;;;;;20.00;99.90;;;;;;5046388;28;19908;-61
2021/08/16 04:38:10;;;;;;;;;;;20.10;99.90;;;;;;5045343;28;20007;-61
2021/08/16 04:40:37;;;;;;;;;;;20.00;99.90;;;;;;5045869;28;19936;-60
2021/08/16 04:43:02;;;;;;;;;;;20.00;99.90;;;;;;5045816;28;20367;-61
2021/08/16 04:45:29;;;;;;;;;;;19.80;99.90;;;;;;5044963;28;19912;-60
2021/08/16 04:47:55;;;;;;;;;;;19.80;99.90;;;;;;5045386;28;20395;-61
2021/08/16 04:50:21;;;;;;;;;;;19.80;99.90;;;;;;5045552;28;19916;-61
2021/08/16 04:52:48;;;;;;;;;;;19.60;99.90;;;;;;5059537;28;19919;-61
2021/08/16 04:55:14;;;;;;;;;;;19.50;99.90;;;;;;5065954;28;19961;-61
2021/08/16 04:57:40;;;;;;;;;;;19.50;99.90;;;;;;5065865;28;19908;-61
2021/08/16 05:00:07;;;;;;;;;;;19.60;99.90;;;;;;5046217;28;19909;-61
2021/08/16 05:02:33;;;;;;;;;;;19.50;99.90;;;;;;5045023;28;19959;-61
2021/08/16 05:05:08;;;;;;;;;;;;;;;;;;5060403;28;19912;-61
2021/08/16 05:07:33;;;;;;;;;;;;;;;;;;5065318;28;19912;-61
2021/08/16 05:10:00;;;;;;;;;;;;;;;;;;5046813;28;20540;-61
2021/08/16 05:12:26;;;;;;;;;;;;;;;;;;5045747;28;19915;-61
2021/08/16 05:14:52;;;;;;;;;;;;;;;;;;5045095;28;19908;-60
2021/08/16 05:17:18;;;;;;;;;;;;;;;;;;5045155;28;19905;-61
2021/08/16 05:19:44;;;;;;;;;;;;;;;;;;5054442;28;19999;-60
2021/08/16 05:22:10;;;;;;;;;;;;;;;;;;5062941;28;19927;-61
2021/08/16 05:24:36;;;;;;;;;;;;;;;;;;5057989;28;19913;-61
2021/08/16 05:27:02;;;;;;;;;;;;;;;;;;5058037;28;20410;-60
2021/08/16 05:29:28;;;;;;;;;;;;;;;;;;5046026;28;20011;-60
2021/08/16 05:31:54;;;;;;;;;;;;;;;;;;5059448;28;19920;-60
2021/08/16 05:34:20;;;;;;;;;;;;;;;;;;5057709;28;19948;-61
2021/08/16 05:36:45;;;;;;;;;;;;;;;;;;5062332;28;19914;-60
2021/08/16 05:39:11;;;;;;;;;;;;;;;;;;5046194;28;19954;-60
2021/08/16 05:41:38;;;;;;;;;;;;;;;;;;5046983;28;19909;-61
2021/08/16 05:44:04;;;;;;;;;;;;;;;;;;5051164;28;19928;-60
2021/08/16 05:46:30;;;;;;;;;;;;;;;;;;5057773;28;19908;-61
2021/08/16 05:48:56;;;;;;;;;;;;;;;;;;5046974;28;19905;-60
2021/08/16 05:51:22;;;;;;;;;;;;;;;;;;5061442;28;20307;-61
2021/08/16 05:53:48;;;;;;;;;;;;;;;;;;5058424;28;19919;-61
2021/08/16 05:56:14;;;;;;;;;;;;;;;;;;5046545;28;19909;-61
2021/08/16 05:58:40;;;;;;;;;;;;;;;;;;5045519;28;19909;-61
2021/08/16 06:01:06;;;;;;;;;;;;;;;;;;5046313;28;19908;-61
2021/08/16 06:03:32;;;;;;;;;;;;;;;;;;5046229;28;19924;-61
2021/08/16 06:05:58;;;;;;;;;;;;;;;;;;5047096;28;19947;-61
2021/08/16 06:08:24;;;;;;;;;;;;;;;;;;5057019;28;20415;-61
2021/08/16 06:10:50;;;;;;;;;;;;;;;;;;5063901;28;19920;-60
2021/08/16 06:13:16;;;;;;;;;;;;;;;;;;5066362;28;19958;-60
2021/08/16 06:15:41;;;;;;;;;;;;;;;;;;5065947;28;19982;-60
2021/08/16 06:18:07;;;;;;;;;;;;;;;;;;5066305;28;19908;-60
2021/08/16 06:20:33;;;;;;;;;;;;;;;;;;5056106;28;19962;-61
2021/08/16 06:22:59;;;;;;;;;;;;;;;;;;5060835;28;19916;-60
2021/08/16 06:25:26;;;;;;;;;;;;;;;;;;5064383;28;19908;-60
2021/08/16 06:27:52;;;;;;;;;;;;;;;;;;5063915;28;20002;-60
2021/08/16 06:30:19;;;;;;;;;;;;;;;;;;5047713;28;20371;-60
2021/08/16 06:32:46;;;;;;;;;;;;;;;;;;5045522;28;20655;-60
2021/08/16 06:35:14;;;;;;;;;;;;;;;;;;5054239;28;19908;-60
2021/08/16 06:37:40;;;;;;;;;;;;;;;;;;5046917;28;19915;-60
2021/08/16 06:40:06;;;;;;;;;;;;;;;;;;5055818;28;19919;-60
2021/08/16 06:42:32;;;;;;;;;;;;;;;;;;5065238;28;20007;-60
2021/08/16 06:44:58;;;;;;;;;;;;;;;;;;5069710;28;19908;-60
2021/08/16 06:47:24;;;;;;;;;;;;;;;;;;5069491;28;19918;-60
2021/08/16 06:49:50;;;;;;;;;;;;;;;;;;5063292;28;19919;-60
2021/08/16 06:52:16;;;;;;;;;;;;;;;;;;5055993;28;19908;-60
2021/08/16 06:54:42;;;;;;;;;;;;;;;;;;5059317;28;20633;-60
2021/08/16 06:57:08;;;;;;;;;;;;;;;;;;5056331;28;19913;-60
2021/08/16 06:59:34;;;;;;;;;;;;;;;;;;5059116;28;19916;-60
2021/08/16 07:02:00;;;;;;;;;;;;;;;;;;5054749;28;19915;-60
2021/08/16 07:04:26;;;;;;;;;;;;;;;;;;5054233;28;19921;-60
2021/08/16 07:06:52;;;;;;;;;;;;;;;;;;5050206;28;19916;-60
2021/08/16 07:09:17;;;;;;;;;;;;;;;;;;5056967;28;20457;-60
2021/08/16 07:11:43;;;;;;;;;;;;;;;;;;5053309;28;19908;-60
2021/08/16 07:14:10;;;;;;;;;;;;;;;;;;5054367;28;19916;-60
2021/08/16 07:16:36;;;;;;;;;;;;;;;;;;5053469;28;20420;-60
2021/08/16 07:19:02;;;;;;;;;;;;;;;;;;5054436;28;19919;-60
2021/08/16 07:21:28;;;;;;;;;;;;;;;;;;5049957;28;19913;-60
2021/08/16 07:23:55;;;;;;;;;;;;;;;;;;5048660;28;20003;-60
2021/08/16 07:26:21;;;;;;;;;;;;;;;;;;5053597;28;19914;-60
2021/08/16 07:28:48;;;;;;;;;;;;;;;;;;5050676;28;19916;-60
2021/08/16 07:31:14;;;;;;;;;;;;;;;;;;5049458;28;19936;-60
2021/08/16 07:33:40;;;;;;;;;;;;;;;;;;5062275;28;19909;-60
2021/08/16 07:36:05;;;;;;;;;;;;;;;;;;5052950;28;19913;-60
2021/08/16 07:38:31;;;;;;;;;;;;;;;;;;5066672;28;19908;-60
2021/08/16 07:40:57;;;;;;;;;;;;;;;;;;5063669;28;19918;-60
2021/08/16 07:43:23;;;;;;;;;;;;;;;;;;5047810;28;19912;-60
2021/08/16 07:45:49;;;;;;;;;;;;;;;;;;5059864;28;19915;-60
2021/08/16 07:48:16;;;;;;;;;;;;;;;;;;5049305;28;19913;-60
2021/08/16 07:50:42;;;;;;;;;;;;;;;;;;5048650;28;20422;-59
2021/08/16 07:53:10;;;;;;;;;;;;;;;;;;5047983;28;19912;-60
2021/08/16 07:55:37;;;;;;;;;;;;;;;;;;5049194;28;19916;-60
2021/08/16 07:58:03;;;;;;;;;;;;;;;;;;5052394;28;19912;-60
2021/08/16 08:00:29;;;;;;;;;;;;;;;;;;5055217;28;19951;-60
2021/08/16 08:02:55;;;;;;;;;;;;;;;;;;5056080;28;19957;-60
2021/08/16 08:05:21;;;;;;;;;;;;;;;;;;5061259;28;20020;-60
2021/08/16 08:07:47;;;;;;;;;;;;;;;;;;5060965;28;19909;-60
2021/08/16 08:10:12;;;;;;;;;;;;;;;;;;5087324;28;19908;-60
2021/08/16 08:12:38;;;;;;;;;;;;;;;;;;5068023;28;20012;-60
2021/08/16 08:15:04;;;;;;;;;;;;;;;;;;5067464;28;19908;-60
2021/08/16 08:17:30;;;;;;;;;;;;;;;;;;5048078;28;19920;-60
2021/08/16 08:19:56;;;;;;;;;;;;;;;;;;5047387;28;19911;-59
2021/08/16 08:22:22;;;;;;;;;;;;;;;;;;5047318;28;19916;-60
2021/08/16 08:24:48;;;;;;;;;;;;;;;;;;5046918;28;19913;-59
2021/08/16 08:27:14;;;;;;;;;;;;;;;;;;5056933;28;19913;-59
2021/08/16 08:29:40;;;;;;;;;;;;;;;;;;5055123;28;19912;-59
2021/08/16 08:32:06;;;;;;;;;;;;;;;;;;5047582;28;20531;-59
2021/08/16 08:34:32;;;;;;;;;;;;;;;;;;5047789;28;20205;-59
2021/08/16 08:36:58;;;;;;;;;;;;;;;;;;5067138;28;19915;-59
2021/08/16 08:39:24;;;;;;;;;;;;;;;;;;5060083;28;19995;-60
2021/08/16 08:41:50;;;;;;;;;;;;;;;;;;5060183;28;19908;-59
2021/08/16 08:44:16;;;;;;;;;;;;;;;;;;5067113;28;19913;-59
2021/08/16 08:46:42;;;;;;;;;;;;;;;;;;5066002;28;19915;-60
2021/08/16 08:49:08;;;;;;;;;;;;;;;;;;5060276;28;19913;-58
2021/08/16 08:51:34;;;;;;;;;;;;;;;;;;5056002;28;19908;-58
2021/08/16 08:54:00;;;;;;;;;;;;;;;;;;5067201;28;19914;-58
2021/08/16 08:56:26;;;;;;;;;;;;;;;;;;5053599;28;19919;-58
2021/08/16 08:58:53;;;;;;;;;;;;;;;;;;5051313;28;71472;-59
2021/08/16 09:02:01;;;;;;;;;;;;;;;;;;5077205;27;19916;-58
2021/08/16 09:04:27;;;;;;;;;;;;;;;;;;5070091;28;19962;-58
2021/08/16 09:06:53;;;;;;;;;;;;;;;;;;5084517;28;19912;-59
2021/08/16 09:09:19;;;;;;;;;;;;;;;;;;5084742;28;19909;-60
2021/08/16 09:11:45;;;;;;;;;;;;;;;;;;5083624;28;19934;-59
2021/08/16 09:14:10;;;;;;;;;;;;;;;;;;5085054;28;19912;-60
2021/08/16 09:16:36;;;;;;;;;;;;;;;;;;5084322;28;19912;-59
2021/08/16 09:19:02;;;;;;;;;;;;;;;;;;5084548;28;19995;-59
2021/08/16 09:21:30;;;;;;;;;;;;;;;;;;5084085;28;19919;-59
2021/08/16 09:23:56;;;;;;;;;;;;;;;;;;5084433;28;19928;-59
2021/08/16 09:26:22;;;;;;;;;;;;;;;;;;5083959;28;20010;-59
2021/08/16 09:28:48;;;;;;;;;;;;;;;;;;5083200;28;20387;-59
2021/08/16 09:31:14;;;;;;;;;;;;;;;;;;5084034;28;19953;-58
2021/08/16 09:33:40;;;;;;;;;;;;;;;;;;5084318;28;19956;-58
2021/08/16 09:36:06;;;;;;;;;;;;;;;;;;5083900;28;20003;-58
2021/08/16 09:38:32;;;;;;;;;;;;;;;;;;5084021;28;20003;-58
2021/08/16 09:40:58;;;;;;;;;;;;;;;;;;5082604;28;19924;-59
2021/08/16 09:43:24;;;;;;;;;;;;;;;;;;5078998;28;19909;-59
2021/08/16 09:45:49;;;;;;;;;;;;;;;;;;5082134;28;19919;-59
2021/08/16 09:48:15;;;;;;;;;;;;;;;;;;5083001;28;19916;-58
2021/08/16 09:50:41;;;;;;;;;;;;;;;;;;5081091;28;20054;-59
2021/08/16 09:53:07;;;;;;;;;;;;;;;;;;5082765;28;19939;-58
2021/08/16 09:55:33;;;;;;;;;;;;;;;;;;5083667;28;19912;-58
2021/08/16 09:58:00;;;;;;;;;;;;;;;;;;5083286;28;20414;-57
2021/08/16 10:00:26;;;;;;;;;;;;;;;;;;5083742;28;20014;-58
2021/08/16 10:02:52;;;;;;;;;;;;;;;;;;5081873;28;20500;-57
2021/08/16 10:05:19;;;;;;;;;;;;;;;;;;5083850;28;19912;-58
2021/08/16 10:07:45;;;;;;;;;;;;;;;;;;5083644;28;19908;-58
2021/08/16 10:10:11;;;;;;;;;;;;;;;;;;5084095;28;19934;-58
2021/08/16 10:12:36;;;;;;;;;;;;;;;;;;5073762;28;19991;-58
2021/08/16 10:15:02;;;;;;;;;;;;;;;;;;5070279;28;19944;-58
2021/08/16 10:17:29;;;;;;;;;;;;;;;;;;5069897;28;19912;-58
2021/08/16 10:19:55;;;;;;;;;;;;;;;;;;5069609;28;20299;-58
2021/08/16 10:22:20;;;;;;;;;;;;;;;;;;5070194;28;19913;-58
2021/08/16 10:24:46;;;;;;;;;;;;;;;;;;5069466;28;19912;-58
2021/08/16 10:27:12;;;;;;;;;;;;;;;;;;5066435;28;19986;-58
2021/08/16 10:29:38;;;;;;;;;;;;;;;;;;5066472;28;19917;-57
2021/08/16 10:32:04;;;;;;;;;;;;;;;;;;5068527;28;19916;-58
2021/08/16 10:34:30;;;;;;;;;;;;;;;;;;5069466;28;19918;-58
2021/08/16 10:36:56;;;;;;;;;;;;;;;;;;5069723;28;19917;-58
2021/08/16 10:39:22;;;;;;;;;;;;;;;;;;5068386;28;19912;-58
2021/08/16 10:41:48;;;;;;;;;;;;;;;;;;5061620;28;19931;-58
2021/08/16 10:44:14;;;;;;;;;;;;;;;;;;5071842;28;19913;-58
2021/08/16 10:46:40;;;;;;;;;;;;;;;;;;5069236;28;19912;-58
2021/08/16 10:49:24;;;;;;;;;;;;;;;;;;5067058;28;19923;-57
2021/08/16 10:51:50;;;;;;;;;;;;;;;;;;5068012;28;19916;-58
2021/08/16 10:54:16;;;;;;;;;;;;;;;;;;5062526;28;19965;-57
2021/08/16 10:56:42;;;;;;;;;;;;;;;;;;5065461;28;19963;-58
2021/08/16 10:59:07;;;;;;;;;;;;;;;;;;5068304;28;19970;-60
2021/08/16 11:01:35;;;;;;;;;;;;;;;;;;5058189;28;19920;-58
2021/08/16 11:04:01;;;;;;;;;;;;;;;;;;5061663;28;19919;-58
2021/08/16 11:06:27;;;;;;;;;;;;;;;;;;5068120;28;19908;-58
2021/08/16 11:08:53;;;;;;;;;;;;;;;;;;5068250;28;19999;-59
2021/08/16 11:11:19;;;;;;;;;;;;;;;;;;5068069;28;19919;-59
2021/08/16 11:13:45;;;;;;;;;;;;;;;;;;5068256;28;19908;-59
2021/08/16 11:16:11;;;;;;;;;;;;;;;;;;5069143;28;19929;-59
2021/08/16 11:18:37;;;;;;;;;;;;;;;;;;5068610;28;20001;-59
2021/08/16 11:21:05;;;;;;;;;;;;;;;;;;5068896;28;20553;-59
2021/08/16 11:23:31;;;;;;;;;;;;;;;;;;5099001;28;20053;-59
2021/08/16 11:25:57;;;;;;;;;;;;;;;;;;5065306;28;20407;-60
2021/08/16 11:28:23;;;;;;;;;;;;;;;;;;5066665;28;20019;-56
2021/08/16 11:30:49;;;;;;;;;;;;;;;;;;5066756;28;19935;-56
2021/08/16 11:33:15;;;;;;;;;;;;;;;;;;5064704;28;20524;-57
2021/08/16 11:35:41;;;;;;;;;;;;;;;;;;5065287;28;20198;-57
2021/08/16 11:38:07;;;;;;;;;;;;;;;;;;5098869;28;19912;-57
2021/08/16 11:40:33;;;;;;;;;;;;;;;;;;5065909;28;19912;-57
2021/08/16 11:42:59;;;;;;;;;;;;;;;;;;5065764;28;19920;-58
2021/08/16 11:45:25;;;;;;;;;;;;;;;;;;5065551;28;19920;-58
2021/08/16 11:47:51;;;;;;;;;;;;;;;;;;5066238;28;19974;-57
2021/08/16 11:50:18;;;;;;;;;;;;;;;;;;5067430;28;19966;-57
2021/08/16 11:52:44;;;;;;;;;;;;;;;;;;5063034;28;19916;-58
2021/08/16 11:55:10;;;;;;;;;;;;;;;;;;5064621;28;20419;-56
2021/08/16 11:57:36;;;;;;;;;;;;;;;;;;5060887;28;19939;-57
2021/08/16 12:00:02;;;;;;;;;;;;;;;;;;5067351;28;20277;-56
2021/08/16 12:02:29;;;;;;;;;;;;;;;;;;5066950;28;19917;-55
2021/08/16 12:04:55;;;;;;;;;;;;;;;;;;5065622;28;20283;-57
2021/08/16 12:07:21;;;;;;;;;;;;;;;;;;5064683;28;19920;-57
2021/08/16 12:09:47;;;;;;;;;;;;;;;;;;5065866;28;19913;-57
2021/08/16 12:12:13;;;;;;;;;;;;;;;;;;5064998;28;19920;-58
2021/08/16 12:14:39;;;;;;;;;;;;;;;;;;5064931;28;20548;-57
2021/08/16 12:17:06;;;;;;;;;;;;;;;;;;5064843;28;19913;-57
2021/08/16 12:19:32;;;;;;;;;;;;;;;;;;5071572;28;19920;-57
2021/08/16 12:21:58;;;;;;;;;;;;;;;;;;5067212;28;20588;-56
2021/08/16 12:24:23;;;;;;;;;;;;;;;;;;5064464;28;19965;-57
2021/08/16 12:26:49;;;;;;;;;;;;;;;;;;5065106;28;19974;-57
2021/08/16 12:29:15;;;;;;;;;;;;;;;;;;5068959;28;19912;-57
2021/08/16 12:31:41;;;;;;;;;;;;;;;;;;5065782;28;19927;-57
2021/08/16 12:34:08;;;;;;;;;;;;;;;;;;5061359;28;19913;-57
2021/08/16 12:36:36;;;;;;;;;;;;;;;;;;5062842;28;19924;-57
2021/08/16 12:39:02;;;;;;;;;;;;;;;;;;5062839;28;19920;-57
2021/08/16 12:41:29;;;;;;;;;;;;;;;;;;5064000;28;19932;-57
2021/08/16 12:43:54;;;;;;;;;;;;;;;;;;5063895;28;19924;-57
2021/08/16 12:46:21;;;;;;;;;;;;;;;;;;5064689;28;19913;-58
2021/08/16 12:48:48;;;;;;;;;;;;;;;;;;5062062;28;20524;-58
2021/08/16 12:51:13;;;;;;;;;;;;;;;;;;5063998;28;20295;-57
2021/08/16 12:53:41;;;;;;;;;;;;;;;;;;5062760;28;20054;-58
2021/08/16 12:56:07;;;;;;;;;;;;;;;;;;5064558;28;20425;-57
2021/08/16 12:58:33;;;;;;;;;;;;;;;;;;5061434;28;20070;-58
2021/08/16 13:00:59;;;;;;;;;;;;;;;;;;5062834;28;20003;-58
2021/08/16 13:03:25;;;;;;;;;;;;;;;;;;5060832;28;20395;-57
2021/08/16 13:05:51;;;;;;;;;;;;;;;;;;5061792;28;19947;-56
2021/08/16 13:08:17;;;;;;;;;;;;;;;;;;5068191;28;19916;-58
2021/08/16 13:10:43;;;;;;;;;;;;;;;;;;5073363;28;19920;-58
2021/08/16 13:13:09;;;;;;;;;;;;;;;;;;5062794;28;19913;-56
2021/08/16 13:15:35;;;;;;;;;;;;;;;;;;5060058;28;19966;-58
2021/08/16 13:18:01;;;;;;;;;;;;;;;;;;5062989;28;20277;-57
2021/08/16 13:20:27;;;;;;;;;;;;;;;;;;5063842;28;20351;-57
2021/08/16 13:22:53;;;;;;;;;;;;;;;;;;5062559;28;19985;-56
2021/08/16 13:25:19;;;;;;;;;;;;;;;;;;5063914;28;19914;-57
2021/08/16 13:27:46;;;;;;;;;;;;;;;;;;5061707;28;20367;-57
2021/08/16 13:30:13;;;;;;;;;;;;;;;;;;5062699;28;19923;-56
2021/08/16 13:32:39;;;;;;;;;;;;;;;;;;5062758;28;19918;-55
2021/08/16 13:35:05;;;;;;;;;;;;;;;;;;5065314;28;19919;-56
2021/08/16 13:37:31;;;;;;;;;;;;;;;;;;5064413;28;20079;-56
2021/08/16 13:39:57;;;;;;;;;;;;;;;;;;5064530;28;19947;-56
2021/08/16 13:42:23;;;;;;;;;;;;;;;;;;5064929;28;19928;-56
2021/08/16 13:44:49;;;;;;;;;;;;;;;;;;5064436;28;19956;-56
2021/08/16 13:47:15;;;;;;;;;;;;;;;;;;5066438;28;19912;-56
2021/08/16 13:49:41;;;;;;;;;;;;;;;;;;5069126;28;19913;-56
2021/08/16 13:52:07;;;;;;;;;;;;;;;;;;5068590;28;19927;-57
2021/08/16 13:54:34;;;;;;;;;;;;;;;;;;5067540;28;19952;-57
2021/08/16 13:57:00;;;;;;;;;;;;;;;;;;5068186;28;19988;-57
2021/08/16 13:59:27;;;;;;;;;;;;;;;;;;5067588;28;20010;-57
2021/08/16 14:01:53;;;;;;;;;;;;;;;;;;5068332;28;19924;-55
2021/08/16 14:04:19;;;;;;;;;;;;;;;;;;5068011;28;19999;-56
2021/08/16 14:06:45;;;;;;;;;;;;;;;;;;5067567;28;19992;-56
2021/08/16 14:09:13;;;;;;;;;;;;;;;;;;5067538;28;19932;-56
2021/08/16 14:11:40;;;;;;;;;;;;;;;;;;5067933;28;20379;-57
2021/08/16 14:14:06;;;;;;;;;;;;;;;;;;5067344;28;19916;-56
2021/08/16 14:16:33;;;;;;;;;;;;;;;;;;5067445;28;20265;-56
2021/08/16 14:18:59;;;;;;;;;;;;;;;;;;5067604;28;20016;-57
2021/08/16 14:21:25;;;;;;;;;;;;;;;;;;5068431;28;20007;-56
2021/08/16 14:23:52;;;;;;;;;;;;;;;;;;5066947;28;19913;-57
2021/08/16 14:26:17;;;;;;;;;;;;;;;;;;5100317;28;19915;-57
2021/08/16 14:28:43;;;;;;;;;;;;;;;;;;5067002;28;19913;-56
2021/08/16 14:31:10;;;;;;;;;;;;;;;;;;5067329;28;20400;-56
2021/08/16 14:33:37;;;;;;;;;;;;;;;;;;5099538;28;19912;-56
2021/08/16 14:36:03;;;;;;;;;;;;;;;;;;5067881;28;20136;-56
2021/08/16 14:38:30;;;;;;;;;;;;;;;;;;5066881;28;19913;-57
2021/08/16 14:40:57;;;;;;;;;;;;;;;;;;5067513;28;19955;-56
2021/08/16 14:43:23;;;;;;;;;;;;;;;;;;5067645;28;19908;-57
2021/08/16 14:45:49;;;;;;;;;;;;;;;;;;5066583;28;20050;-56
2021/08/16 14:48:15;;;;;;;;;;;;;;;;;;5067020;28;20433;-57
2021/08/16 14:50:43;;;;;;;;;;;;;;;;;;5065089;28;19908;-57
2021/08/16 14:53:09;;;;;;;;;;;;;;;;;;5066907;28;20406;-57
2021/08/16 14:55:34;;;;;;;;;;;;;;;;;;5066786;28;19908;-57
2021/08/16 14:58:00;;;;;;;;;;;;;;;;;;5065232;28;19963;-57
2021/08/16 15:00:26;;;;;;;;;;;;;;;;;;5067233;28;20007;-57
2021/08/16 15:02:52;;;;;;;;;;;;;;;;;;5065217;28;19912;-57
2021/08/16 15:05:19;;;;;;;;;;;;;;;;;;5067219;28;19912;-57
2021/08/16 15:07:45;;;;;;;;;;;;;;;;;;5066384;28;19909;-57
2021/08/16 15:10:11;;;;;;;;;;;;;;;;;;5066358;28;19916;-57
2021/08/16 15:12:38;;;;;;;;;;;;;;;;;;5099166;28;19979;-57
2021/08/16 15:15:03;;;;;;;;;;;;;;;;;;5066407;28;20114;-57
2021/08/16 15:17:31;;;;;;;;;;;;;;;;;;5064834;28;19908;-57
2021/08/16 15:19:56;;;;;;;;;;;;;;;;;;5066393;28;19919;-57
2021/08/16 15:22:22;;;;;;;;;;;;;;;;;;5064820;28;20354;-57
2021/08/16 15:24:48;;;;;;;;;;;;;;;;;;5066103;28;19917;-57
2021/08/16 15:27:14;;;;;;;;;;;;;;;;;;5066141;28;19909;-57
2021/08/16 15:29:41;;;;;;;;;;;;;;;;;;5066104;28;19913;-57
2021/08/16 15:32:08;;;;;;;;;;;;;;;;;;5066782;28;19958;-57
2021/08/16 15:34:34;;;;;;;;;;;;;;;;;;5066301;28;19974;-58
2021/08/16 15:37:00;;;;;;;;;;;;;;;;;;5066829;28;20406;-59
2021/08/16 15:39:26;;;;;;;;;;;;;;;;;;5067623;28;19916;-59
2021/08/16 15:41:52;;;;;;;;;;;;;;;;;;5067261;28;20353;-59
2021/08/16 15:44:18;;;;;;;;;;;;;;;;;;5067194;28;19916;-58